McCook, NE

5:53 PM CDT on July 03, 2015 (GMT -0500)
KNEMCCOO2 | | Change Station
CLOSE
Current Station
Personal Weather Station
Location: McCook, NE
Elevation: 2609 ft
Nearby Weather Stations

Elev 2609 ft 40.21 °N, 100.64 °W | Updated 3 minutes ago

Mostly Cloudy
Mostly Cloudy
84.7 °F
Feels Like 87 °F
N
6.7
Wind Variable Wind from East
Gusts 9.3 mph

Today
High -- | Low -- °F
--% Chance of Precip.
Yesterday
High -- | Low -- °F
Precip. -- in
6:17 AM 9:15 PM
Waning Gibbous, 95% visible
Pressure 29.94 in
Visibility 8.0 miles
Clouds Mostly Cloudy 5500 ft
Heat Index 87 °F
Dew Point 67 °F
Humidity 55%
Rainfall 0.00 in
Snow Depth Not available.
UV 4 out of 12
Pollen 4.60 out of 12
Air Quality Not available.
Flu Activity Not available.
METAR KMCK 032153Z AUTO 10007KT 8SM BKN055 28/16 A3000 RMK AO2 SLP137 T02780161

More Conditions Fewer Conditions

Pressure 29.94 in
Visibility 8.0 miles
Clouds Mostly Cloudy 5500 ft
Heat Index 87 °F
Dew Point 67 °F
Humidity 55%
Rainfall 0.00 in
Snow Depth Not available.
UV 4 out of 12
Pollen 4.60 out of 12
Air Quality Not available.
Flu Activity Not available.
METAR KMCK 032153Z AUTO 10007KT 8SM BKN055 28/16 A3000 RMK AO2 SLP137 T02780161

More Conditions Fewer Conditions

10-Day Weather Forecast

×

Almanac

Astronomy

Jul. 03, 2015 Rise Set
Actual Time
Civil Twilight
Nautical Twilight
Astronomical Twilight
Moon
Length of Visible Light
Length of Day
Tomorrow will be .
, % of the Moon is Illuminated

Today's Extremes

State Highs State Lows

Community

WunderPhotos

Upload Photos

1,834,807 photos uploaded!

WunderBlogs® & News

Nearby

Air Quality

  Air Quality AQ Index Pollutant
Not available.

Snow Depth

Station Depth Elevation

Earthquake Activity

City Distance Mag. Time & Date
Minimum magnitude displayed is 2.5.

Coastal Water Temperatures

Place Temperature

Stations

Nearby Weather Stations

Station Location Temp. Windchill Dew Point Humidity Wind Precip. Elev Updated Type